Time;durP1;ratioP1;P1;durP2;ratioP2;P2;SDS_P1;SDS_P2;PMS_P1;PMS_P2;Temp;Humidity;BMP_temperature;BMP_pressure;BME280_temperature;BME280_humidity;BME280_pressure;Samples;Min_cycle;Max_cycle;Signal;HPM_P1;HPM_P2
2020/12/27 00:01:20;;;;;;;8.82;7.93;;;2.50;1.00;;;;;;4996558;28;20263;-74
2020/12/27 00:03:47;;;;;;;10.75;8.02;;;2.50;1.00;;;;;;4985956;28;21564;-74
2020/12/27 00:06:13;;;;;;;8.68;7.38;;;2.50;1.00;;;;;;4989147;28;20337;-73
2020/12/27 00:08:39;;;;;;;10.23;8.63;;;2.40;1.00;;;;;;4978430;28;21056;-75
2020/12/27 00:11:06;;;;;;;9.35;8.05;;;2.40;1.00;;;;;;4987277;28;20232;-74
2020/12/27 00:13:33;;;;;;;9.85;7.90;;;2.40;1.00;;;;;;5002125;28;20329;-74
2020/12/27 00:15:59;;;;;;;9.20;7.95;;;2.40;1.00;;;;;;4990703;28;20706;-74
2020/12/27 00:18:25;;;;;;;12.35;8.15;;;2.40;1.00;;;;;;4983616;28;20314;-75
2020/12/27 00:20:52;;;;;;;11.63;8.77;;;2.30;1.00;;;;;;4980198;28;20234;-74
2020/12/27 00:23:18;;;;;;;11.00;9.10;;;2.30;1.00;;;;;;4982239;28;20235;-74
2020/12/27 00:25:44;;;;;;;12.65;8.10;;;2.30;1.00;;;;;;4980833;28;20227;-74
2020/12/27 00:28:11;;;;;;;9.80;8.18;;;2.30;1.00;;;;;;4985720;28;20720;-74
2020/12/27 00:30:37;;;;;;;9.40;7.82;;;2.30;1.00;;;;;;4983975;28;20298;-74
2020/12/27 00:33:03;;;;;;;8.18;7.28;;;2.30;1.00;;;;;;4970595;28;20902;-74
2020/12/27 00:35:29;;;;;;;11.65;8.82;;;2.30;1.00;;;;;;4978863;28;20234;-74
2020/12/27 00:37:56;;;;;;;11.50;8.25;;;2.20;1.00;;;;;;4991368;28;20302;-74
2020/12/27 00:40:22;;;;;;;11.38;8.90;;;2.20;1.00;;;;;;4979810;28;20229;-73
2020/12/27 00:42:48;;;;;;;10.13;8.43;;;2.20;1.00;;;;;;4978077;28;20812;-73
2020/12/27 00:45:15;;;;;;;10.10;7.97;;;2.20;1.00;;;;;;4976228;28;20223;-74
2020/12/27 00:47:41;;;;;;;11.18;8.63;;;2.20;1.00;;;;;;4977094;28;20243;-74
2020/12/27 00:50:07;;;;;;;8.77;7.88;;;2.20;1.00;;;;;;4976671;28;20282;-74
2020/12/27 00:52:34;;;;;;;12.68;9.18;;;2.20;1.00;;;;;;4977624;28;20234;-74
2020/12/27 00:55:01;;;;;;;9.00;8.13;;;2.20;1.00;;;;;;4974903;28;20330;-74
2020/12/27 00:57:27;;;;;;;10.57;8.07;;;2.10;1.00;;;;;;4973559;28;20259;-73
2020/12/27 00:59:54;;;;;;;12.52;8.63;;;2.10;1.00;;;;;;4978970;28;20227;-74
2020/12/27 01:02:20;;;;;;;11.63;8.50;;;2.10;1.00;;;;;;4975299;28;20242;-73
2020/12/27 01:04:46;;;;;;;8.95;7.60;;;2.00;1.00;;;;;;4981900;28;20311;-74
2020/12/27 01:07:12;;;;;;;12.18;9.25;;;2.00;1.00;;;;;;4980316;28;21002;-73
2020/12/27 01:09:38;;;;;;;10.35;8.70;;;2.10;1.00;;;;;;4980424;28;20399;-75
2020/12/27 01:12:05;;;;;;;9.98;8.45;;;2.10;1.00;;;;;;4975453;28;20224;-75
2020/12/27 01:14:32;;;;;;;8.95;8.02;;;2.10;1.00;;;;;;4974595;28;20235;-75
2020/12/27 01:16:58;;;;;;;9.02;7.45;;;2.10;1.00;;;;;;4979800;28;20785;-75
2020/12/27 01:19:24;;;;;;;11.18;9.27;;;2.10;1.00;;;;;;4974997;28;20263;-75
2020/12/27 01:21:53;;;;;;;10.73;9.05;;;2.10;1.00;;;;;;4964950;28;20703;-75
2020/12/27 01:24:19;;;;;;;9.55;7.93;;;2.00;1.00;;;;;;4973195;28;22404;-74
2020/12/27 01:26:46;;;;;;;9.32;7.72;;;2.10;1.00;;;;;;4968532;28;20258;-74
2020/12/27 01:29:13;;;;;;;8.77;7.88;;;2.10;1.00;;;;;;4980252;28;20368;-75
2020/12/27 01:31:39;;;;;;;9.57;7.80;;;2.10;1.00;;;;;;4971167;28;20343;-74
2020/12/27 01:34:06;;;;;;;10.60;7.93;;;2.00;1.00;;;;;;4974489;28;20232;-73
2020/12/27 01:36:34;;;;;;;8.18;6.93;;;2.00;1.00;;;;;;4973515;28;20218;-75
2020/12/27 01:39:02;;;;;;;10.80;7.90;;;2.00;1.00;;;;;;4959942;28;21131;-74
2020/12/27 01:41:28;;;;;;;9.13;7.55;;;2.10;1.00;;;;;;4981650;28;20238;-74
2020/12/27 01:44:02;;;;;;;8.90;7.75;;;2.10;1.00;;;;;;4971267;28;20223;-76
2020/12/27 01:46:30;;;;;;;9.38;6.97;;;2.00;1.00;;;;;;4976402;28;20238;-75
2020/12/27 01:48:57;;;;;;;9.15;7.28;;;2.00;1.00;;;;;;4979078;28;20281;-74
2020/12/27 01:51:23;;;;;;;9.00;7.00;;;2.00;1.00;;;;;;4979411;28;20231;-74
2020/12/27 01:53:49;;;;;;;7.43;6.65;;;2.00;1.00;;;;;;4986224;28;20232;-74
2020/12/27 01:56:18;;;;;;;8.63;7.53;;;2.00;1.00;;;;;;4993464;28;20229;-74
2020/12/27 01:58:46;;;;;;;8.85;7.93;;;2.00;1.00;;;;;;4988543;28;20224;-74
2020/12/27 02:01:13;;;;;;;9.57;7.28;;;1.90;1.00;;;;;;4978030;28;20235;-74
2020/12/27 02:03:41;;;;;;;7.63;6.72;;;1.90;1.00;;;;;;4977869;28;20228;-74
2020/12/27 02:06:07;;;;;;;10.45;7.43;;;1.90;1.00;;;;;;4978828;28;20231;-74
2020/12/27 02:08:36;;;;;;;8.00;7.20;;;1.90;1.00;;;;;;4972406;28;21189;-74
2020/12/27 02:11:02;;;;;;;7.95;7.15;;;1.90;1.00;;;;;;4979134;28;20240;-74
2020/12/27 02:13:28;;;;;;;9.32;7.00;;;1.90;1.00;;;;;;4972632;28;20266;-74
2020/12/27 02:15:54;;;;;;;7.68;6.97;;;1.90;1.00;;;;;;4974670;28;20356;-74
2020/12/27 02:18:21;;;;;;;7.50;6.80;;;1.90;1.00;;;;;;4993777;28;20511;-74
2020/12/27 02:20:47;;;;;;;7.65;6.85;;;2.00;1.00;;;;;;4999079;28;20311;-74
2020/12/27 02:23:16;;;;;;;8.55;7.05;;;2.00;1.00;;;;;;5004153;28;20208;-74
2020/12/27 02:25:44;;;;;;;9.55;7.43;;;2.00;1.00;;;;;;4999650;28;20220;-74
2020/12/27 02:28:11;;;;;;;7.65;6.95;;;2.00;1.00;;;;;;4984772;28;20314;-74
2020/12/27 02:30:37;;;;;;;8.55;6.80;;;2.00;1.00;;;;;;4979907;28;20339;-75
2020/12/27 02:33:03;;;;;;;8.95;6.88;;;2.00;1.00;;;;;;4984483;28;20234;-75
2020/12/27 02:35:30;;;;;;;9.13;8.00;;;2.00;1.00;;;;;;4982871;28;20219;-75
2020/12/27 02:37:56;;;;;;;6.90;6.15;;;2.00;1.00;;;;;;4986292;28;20255;-75
2020/12/27 02:40:22;;;;;;;8.55;5.97;;;2.00;1.00;;;;;;4982877;28;20230;-75
2020/12/27 02:42:49;;;;;;;7.85;7.03;;;2.00;1.00;;;;;;4991438;28;20212;-76
2020/12/27 02:45:16;;;;;;;7.78;6.78;;;2.00;1.00;;;;;;4997773;28;20382;-75
2020/12/27 02:47:42;;;;;;;8.45;6.75;;;2.00;1.00;;;;;;4991558;28;20357;-76
2020/12/27 02:50:11;;;;;;;7.47;6.55;;;2.00;1.00;;;;;;4990101;28;20223;-75
2020/12/27 02:52:38;;;;;;;9.45;7.75;;;2.00;1.00;;;;;;4982200;28;20983;-75
2020/12/27 02:55:05;;;;;;;7.10;6.40;;;2.00;1.00;;;;;;4980197;28;20224;-75
2020/12/27 02:57:31;;;;;;;8.45;5.90;;;2.00;1.00;;;;;;4972807;28;20216;-74
2020/12/27 02:59:58;;;;;;;7.68;6.85;;;2.00;1.00;;;;;;4972046;28;20693;-75
2020/12/27 03:02:24;;;;;;;9.63;6.30;;;2.00;1.00;;;;;;4977263;28;20319;-73
2020/12/27 03:04:50;;;;;;;7.00;6.25;;;2.00;1.00;;;;;;4984341;28;20302;-73
2020/12/27 03:07:17;;;;;;;7.05;6.35;;;2.00;1.00;;;;;;4979255;28;20326;-74
2020/12/27 03:09:43;;;;;;;7.80;6.95;;;1.90;1.00;;;;;;4986801;28;20231;-74
2020/12/27 03:12:09;;;;;;;6.78;6.10;;;1.90;1.00;;;;;;4980711;28;20232;-74
2020/12/27 03:14:35;;;;;;;7.50;6.20;;;1.90;1.00;;;;;;4981912;28;20227;-73
2020/12/27 03:17:02;;;;;;;7.78;6.40;;;1.90;1.00;;;;;;4978006;28;20228;-74
2020/12/27 03:19:28;;;;;;;8.52;6.30;;;2.00;1.00;;;;;;4977593;28;20230;-74
2020/12/27 03:21:55;;;;;;;7.45;5.28;;;2.00;1.00;;;;;;4973249;28;20240;-73
2020/12/27 03:24:21;;;;;;;5.95;5.32;;;2.00;1.00;;;;;;4991347;28;20231;-74
2020/12/27 03:26:47;;;;;;;6.60;6.00;;;1.90;1.00;;;;;;4985202;28;20242;-74
2020/12/27 03:29:13;;;;;;;8.80;6.00;;;1.90;1.00;;;;;;4972933;28;20224;-73
2020/12/27 03:31:39;;;;;;;6.15;5.53;;;1.90;1.00;;;;;;4978490;28;20350;-74
2020/12/27 03:34:06;;;;;;;6.43;5.68;;;1.90;1.00;;;;;;4979885;28;20718;-75
2020/12/27 03:36:33;;;;;;;5.65;5.05;;;1.90;1.00;;;;;;4979371;28;20220;-73
2020/12/27 03:38:59;;;;;;;6.22;5.63;;;1.90;1.00;;;;;;4979495;28;20319;-74
2020/12/27 03:41:25;;;;;;;9.13;5.28;;;1.90;1.00;;;;;;4977221;28;20236;-74
2020/12/27 03:43:51;;;;;;;9.90;5.72;;;1.90;1.00;;;;;;4976799;28;20660;-74
2020/12/27 03:46:17;;;;;;;7.82;5.63;;;1.90;1.00;;;;;;4979077;28;20235;-74
2020/12/27 03:48:44;;;;;;;8.57;5.70;;;2.00;1.00;;;;;;4980393;28;20230;-74
2020/12/27 03:51:11;;;;;;;9.40;6.15;;;2.00;1.00;;;;;;4976453;28;20224;-74
2020/12/27 03:53:37;;;;;;;6.75;5.72;;;1.90;1.00;;;;;;4990552;28;20736;-74
2020/12/27 03:56:04;;;;;;;6.97;5.20;;;1.90;1.00;;;;;;4999604;28;21014;-74
2020/12/27 03:58:30;;;;;;;5.90;5.40;;;1.90;1.00;;;;;;4998592;28;20243;-75
2020/12/27 04:00:56;;;;;;;8.40;5.78;;;1.90;1.00;;;;;;4994080;28;20234;-74
2020/12/27 04:03:22;;;;;;;7.10;5.82;;;2.00;1.00;;;;;;4996782;28;20286;-73
2020/12/27 04:05:48;;;;;;;6.85;6.15;;;1.90;1.00;;;;;;5007226;28;20243;-74
2020/12/27 04:08:15;;;;;;;7.85;6.90;;;1.90;1.00;;;;;;5003481;28;20280;-75
2020/12/27 04:10:42;;;;;;;6.70;5.97;;;1.90;1.00;;;;;;4999681;28;20294;-74
2020/12/27 04:13:08;;;;;;;6.95;6.10;;;1.90;1.00;;;;;;4990334;28;20241;-74
2020/12/27 04:15:34;;;;;;;7.25;6.20;;;1.90;1.00;;;;;;4978083;28;20211;-74
2020/12/27 04:18:00;;;;;;;7.68;6.43;;;1.90;1.00;;;;;;4976633;28;20224;-73
2020/12/27 04:20:27;;;;;;;6.00;5.40;;;1.90;1.00;;;;;;4977390;28;20239;-74
2020/12/27 04:22:53;;;;;;;9.88;5.55;;;1.90;1.00;;;;;;4980338;28;20335;-74
2020/12/27 04:25:20;;;;;;;6.65;6.05;;;1.90;1.00;;;;;;4980903;28;20772;-73
2020/12/27 04:27:46;;;;;;;8.02;5.55;;;1.90;1.00;;;;;;4980952;28;20223;-74
2020/12/27 04:30:13;;;;;;;9.20;6.60;;;1.90;1.00;;;;;;4986073;28;20220;-75
2020/12/27 04:32:39;;;;;;;7.38;6.07;;;1.80;1.00;;;;;;4979596;28;20232;-75
2020/12/27 04:35:06;;;;;;;6.55;5.90;;;1.80;1.00;;;;;;4975521;28;21607;-74
2020/12/27 04:37:32;;;;;;;8.27;6.15;;;1.80;1.00;;;;;;4983181;28;20330;-75
2020/12/27 04:39:58;;;;;;;7.60;6.55;;;1.80;1.00;;;;;;4980206;28;20219;-74
2020/12/27 04:42:25;;;;;;;7.07;6.38;;;1.80;1.00;;;;;;4979194;28;21115;-74
2020/12/27 04:44:54;;;;;;;6.78;6.00;;;1.80;1.00;;;;;;4972488;28;20307;-75
2020/12/27 04:47:23;;;;;;;6.47;5.88;;;1.80;1.00;;;;;;4973843;28;20236;-74
2020/12/27 04:49:50;;;;;;;7.68;5.90;;;1.80;1.00;;;;;;4973949;28;20673;-74
2020/12/27 04:52:19;;;;;;;8.20;6.03;;;1.80;1.00;;;;;;4978817;28;20227;-75
2020/12/27 04:54:47;;;;;;;7.15;5.90;;;1.80;1.00;;;;;;4971993;28;20234;-74
2020/12/27 04:57:14;;;;;;;9.15;6.70;;;1.80;1.00;;;;;;4973927;28;22223;-74
2020/12/27 04:59:46;;;;;;;6.07;5.50;;;1.80;1.00;;;;;;4972378;28;21059;-74
2020/12/27 05:02:13;;;;;;;7.20;6.32;;;1.80;1.00;;;;;;4970932;28;20235;-75
2020/12/27 05:04:39;;;;;;;9.02;7.07;;;1.70;1.00;;;;;;4974250;28;20219;-74
2020/12/27 05:07:05;;;;;;;7.55;6.50;;;1.70;1.00;;;;;;4977659;28;20239;-74
2020/12/27 05:09:32;;;;;;;8.95;6.45;;;1.70;1.00;;;;;;4972984;28;21660;-74
2020/12/27 05:11:58;;;;;;;8.20;6.25;;;1.80;1.00;;;;;;4980687;28;20223;-74
2020/12/27 05:14:25;;;;;;;7.80;6.55;;;1.80;1.00;;;;;;4981439;28;20253;-74
2020/12/27 05:16:54;;;;;;;7.70;6.53;;;1.80;1.00;;;;;;4972440;28;20225;-74
2020/12/27 05:19:20;;;;;;;8.38;6.57;;;1.70;1.00;;;;;;4977024;28;20232;-73
2020/12/27 05:21:47;;;;;;;10.15;7.30;;;1.70;1.00;;;;;;4980740;28;20232;-74
2020/12/27 05:24:14;;;;;;;7.35;6.30;;;1.70;1.00;;;;;;4978240;28;20228;-73
2020/12/27 05:26:42;;;;;;;6.90;6.28;;;1.70;1.00;;;;;;4973910;28;20247;-73
2020/12/27 05:29:09;;;;;;;10.32;6.90;;;1.60;1.00;;;;;;4985148;28;20247;-74
2020/12/27 05:31:37;;;;;;;7.03;6.10;;;1.60;1.00;;;;;;4976057;28;20227;-74
2020/12/27 05:34:05;;;;;;;8.65;6.10;;;1.60;1.00;;;;;;4979116;28;20308;-74
2020/12/27 05:36:32;;;;;;;9.23;7.88;;;1.60;1.00;;;;;;4974126;28;20238;-74
2020/12/27 05:38:58;;;;;;;7.20;6.38;;;1.50;1.00;;;;;;4974952;28;20239;-74
2020/12/27 05:41:26;;;;;;;7.30;6.20;;;1.50;1.00;;;;;;4980459;28;20318;-73
2020/12/27 05:44:00;;;;;;;9.65;6.60;;;1.50;1.00;;;;;;4974364;28;20226;-73
2020/12/27 05:46:28;;;;;;;7.82;6.97;;;1.40;1.00;;;;;;4978239;28;20289;-73
2020/12/27 05:48:55;;;;;;;10.10;7.05;;;1.40;1.00;;;;;;4976531;28;20230;-74
2020/12/27 05:51:23;;;;;;;8.45;6.93;;;1.40;1.00;;;;;;4987305;28;20231;-74
2020/12/27 05:53:54;;;;;;;7.85;6.45;;;1.40;1.00;;;;;;4997596;28;20226;-73
2020/12/27 05:56:21;;;;;;;9.80;6.72;;;1.40;1.00;;;;;;4993349;28;20718;-73
2020/12/27 05:58:48;;;;;;;8.52;7.38;;;1.40;1.00;;;;;;4983936;28;20278;-73
2020/12/27 06:01:21;;;;;;;9.27;6.75;;;1.40;1.00;;;;;;4979582;28;20306;-74
2020/12/27 06:04:05;;;;;;;11.23;8.40;;;1.30;1.00;;;;;;4978319;28;21304;-74
2020/12/27 06:07:13;;;;;;;8.88;7.55;;;1.30;1.00;;;;;;4978869;28;20261;-74
2020/12/27 06:09:54;;;;;;;12.30;7.88;;;1.30;1.00;;;;;;4980999;28;21076;-74
2020/12/27 06:12:21;;;;;;;10.57;6.60;;;1.30;1.00;;;;;;4987484;28;20962;-75
2020/12/27 06:15:08;;;;;;;7.45;6.10;;;1.30;1.00;;;;;;4982380;28;20314;-74
2020/12/27 06:17:54;;;;;;;8.90;6.63;;;1.30;1.00;;;;;;4973090;28;20726;-74
2020/12/27 06:20:22;;;;;;;9.48;7.00;;;1.30;1.00;;;;;;4984396;28;21169;-74
2020/12/27 06:22:50;;;;;;;7.05;6.35;;;1.30;1.00;;;;;;4995545;28;20292;-74
2020/12/27 06:25:18;;;;;;;9.05;7.32;;;1.20;1.00;;;;;;4977820;28;21031;-74
2020/12/27 06:27:45;;;;;;;6.60;5.75;;;1.20;1.00;;;;;;4983720;28;20250;-74
2020/12/27 06:30:18;;;;;;;7.13;6.35;;;1.20;1.00;;;;;;4989943;28;20246;-75
2020/12/27 06:32:49;;;;;;;5.80;4.70;;;1.30;1.00;;;;;;4994861;28;20227;-74
2020/12/27 06:35:16;;;;;;;7.13;5.32;;;1.30;1.00;;;;;;4995505;28;20230;-74
2020/12/27 06:37:43;;;;;;;7.38;5.20;;;1.20;1.00;;;;;;4998110;28;20216;-74
2020/12/27 06:40:11;;;;;;;6.72;5.68;;;1.20;1.00;;;;;;4985211;28;20227;-74
2020/12/27 06:42:38;;;;;;;5.68;5.07;;;1.30;1.00;;;;;;4978156;28;20869;-74
2020/12/27 06:45:05;;;;;;;7.93;5.53;;;1.30;1.00;;;;;;4979637;28;20223;-75
2020/12/27 06:47:49;;;;;;;7.65;5.72;;;1.30;1.00;;;;;;4983956;28;20768;-74
2020/12/27 06:50:17;;;;;;;7.65;5.65;;;1.30;1.00;;;;;;4979349;28;21249;-74
2020/12/27 06:52:43;;;;;;;6.03;4.45;;;1.30;1.00;;;;;;4994085;28;20310;-73
2020/12/27 06:55:11;;;;;;;8.57;5.45;;;1.30;1.00;;;;;;4992155;28;20283;-74
2020/12/27 06:57:45;;;;;;;6.35;4.25;;;1.30;1.00;;;;;;4998813;28;20230;-74
2020/12/27 07:00:22;;;;;;;6.97;5.15;;;1.30;1.00;;;;;;4998383;28;20223;-75
2020/12/27 07:02:48;;;;;;;6.50;5.00;;;1.40;1.00;;;;;;4997318;28;20331;-74
2020/12/27 07:05:29;;;;;;;5.97;4.00;;;1.40;1.00;;;;;;4984015;28;21063;-74
2020/12/27 07:07:55;;;;;;;9.30;6.20;;;1.40;1.00;;;;;;4982914;28;20242;-73
2020/12/27 07:10:26;;;;;;;6.57;4.88;;;1.50;1.00;;;;;;4982434;28;20224;-73
2020/12/27 07:13:01;;;;;;;5.07;4.25;;;1.40;1.00;;;;;;4978648;28;20781;-74
2020/12/27 07:15:28;;;;;;;8.60;7.28;;;1.50;1.00;;;;;;4977553;28;21022;-72
2020/12/27 07:17:55;;;;;;;6.25;5.20;;;1.50;1.00;;;;;;4981594;28;20227;-74
2020/12/27 07:20:23;;;;;;;8.25;5.07;;;1.50;1.00;;;;;;4979956;28;20279;-73
2020/12/27 07:22:54;;;;;;;8.38;6.20;;;1.50;1.00;;;;;;4977205;28;20310;-73
2020/12/27 07:25:24;;;;;;;11.15;9.57;;;1.50;1.00;;;;;;4985863;28;20306;-74
2020/12/27 07:27:51;;;;;;;5.88;5.28;;;1.50;1.00;;;;;;4978178;28;20247;-74
2020/12/27 07:30:18;;;;;;;6.10;4.82;;;1.50;1.00;;;;;;4977987;28;20318;-73
2020/12/27 07:32:48;;;;;;;6.03;4.20;;;1.50;1.00;;;;;;4979550;28;20332;-74
2020/12/27 07:35:14;;;;;;;5.35;4.05;;;1.50;1.00;;;;;;4984295;28;20224;-74
2020/12/27 07:37:44;;;;;;;6.28;4.30;;;1.50;1.00;;;;;;5000305;28;20282;-74
2020/12/27 07:40:11;;;;;;;4.20;3.15;;;1.50;1.00;;;;;;5006081;28;20218;-74
2020/12/27 07:42:38;;;;;;;3.83;3.42;;;1.50;1.00;;;;;;4995284;28;20290;-74
2020/12/27 07:45:07;;;;;;;4.88;4.10;;;1.50;1.00;;;;;;4982119;28;20681;-73
2020/12/27 07:47:37;;;;;;;5.30;3.30;;;1.40;1.00;;;;;;4980190;28;21658;-74
2020/12/27 07:50:09;;;;;;;4.30;3.92;;;1.40;1.00;;;;;;4976557;28;20227;-74
2020/12/27 07:53:00;;;;;;;4.13;3.60;;;1.40;1.00;;;;;;4978924;28;20239;-74
2020/12/27 07:55:31;;;;;;;3.13;2.92;;;1.40;1.00;;;;;;4960445;28;20234;-74
2020/12/27 07:58:01;;;;;;;5.35;3.47;;;1.50;1.00;;;;;;4984595;28;20307;-73
2020/12/27 08:00:30;;;;;;;4.88;2.90;;;1.40;1.00;;;;;;4979329;28;21009;-74
2020/12/27 08:02:57;;;;;;;4.13;2.95;;;1.40;1.00;;;;;;4979607;28;20294;-75
2020/12/27 08:05:23;;;;;;;4.18;3.17;;;1.40;1.00;;;;;;4978991;28;20311;-75
2020/12/27 08:07:53;;;;;;;4.65;3.40;;;1.40;1.00;;;;;;4976173;28;20319;-75
2020/12/27 08:10:26;;;;;;;3.60;3.30;;;1.40;1.00;;;;;;4974476;28;20301;-74
2020/12/27 08:12:55;;;;;;;5.13;3.83;;;1.50;1.00;;;;;;4981550;28;20240;-75
2020/12/27 08:15:23;;;;;;;7.65;3.20;;;1.50;1.00;;;;;;4982589;28;20215;-74
2020/12/27 08:17:57;;;;;;;5.85;3.45;;;1.40;1.00;;;;;;4979055;28;20232;-74
2020/12/27 08:20:24;;;;;;;4.07;3.47;;;1.40;1.00;;;;;;4977833;28;21404;-75
2020/12/27 08:23:01;;;;;;;4.13;3.20;;;1.40;1.00;;;;;;4975617;28;20230;-75
2020/12/27 08:25:28;;;;;;;4.28;3.05;;;1.50;1.00;;;;;;4977266;28;20226;-74
2020/12/27 08:27:56;;;;;;;5.55;3.75;;;1.50;1.00;;;;;;4979666;28;20319;-75
2020/12/27 08:30:25;;;;;;;6.95;3.22;;;1.50;1.00;;;;;;4984408;28;20801;-74
2020/12/27 08:33:09;;;;;;;6.20;3.38;;;1.50;1.00;;;;;;4984908;28;20274;-75
2020/12/27 08:35:38;;;;;;;3.33;3.03;;;1.50;1.00;;;;;;4988160;28;21265;-75
2020/12/27 08:38:20;;;;;;;4.05;3.50;;;1.50;1.00;;;;;;4985804;28;20318;-74
2020/12/27 08:40:58;;;;;;;6.78;3.15;;;1.50;1.00;;;;;;4991725;28;21010;-73
2020/12/27 08:43:34;;;;;;;4.22;3.05;;;1.50;1.00;;;;;;4995498;28;20235;-73
2020/12/27 08:46:06;;;;;;;3.70;3.05;;;1.50;1.00;;;;;;5001955;28;20224;-73
2020/12/27 08:48:36;;;;;;;4.15;3.35;;;1.50;1.00;;;;;;4983950;28;21241;-73
2020/12/27 08:51:05;;;;;;;3.78;3.40;;;1.50;1.00;;;;;;4986081;28;20232;-75
2020/12/27 08:53:40;;;;;;;4.50;3.80;;;1.60;1.00;;;;;;4987539;28;20723;-74
2020/12/27 08:56:08;;;;;;;5.82;3.40;;;1.50;1.00;;;;;;4985850;28;20227;-74
2020/12/27 08:58:34;;;;;;;4.55;3.30;;;1.60;1.00;;;;;;4989467;28;21319;-75
2020/12/27 09:01:01;;;;;;;3.30;3.00;;;1.70;1.00;;;;;;4991844;28;21011;-75
2020/12/27 09:03:27;;;;;;;3.97;3.33;;;1.70;1.00;;;;;;4994435;28;20300;-74
2020/12/27 09:05:53;;;;;;;4.18;3.40;;;1.70;1.00;;;;;;4988243;28;20228;-75
2020/12/27 09:08:20;;;;;;;5.47;4.35;;;1.80;1.00;;;;;;4989171;28;20233;-74
2020/12/27 09:10:48;;;;;;;3.60;3.20;;;1.90;1.00;;;;;;4989546;28;20327;-75
2020/12/27 09:13:16;;;;;;;4.25;3.47;;;2.00;1.00;;;;;;4985625;28;20232;-74
2020/12/27 09:15:44;;;;;;;3.40;3.10;;;2.00;1.00;;;;;;4986495;28;20215;-74
2020/12/27 09:18:14;;;;;;;3.75;3.35;;;2.00;1.00;;;;;;4986507;28;20274;-75
2020/12/27 09:20:41;;;;;;;4.05;3.65;;;2.00;1.00;;;;;;4985963;28;20247;-75
2020/12/27 09:23:12;;;;;;;3.50;3.20;;;2.00;1.00;;;;;;4991077;28;20413;-75
2020/12/27 09:25:39;;;;;;;4.10;3.10;;;1.90;1.00;;;;;;4983024;28;20755;-74
2020/12/27 09:28:12;;;;;;;4.07;3.40;;;1.90;1.00;;;;;;4988421;28;20242;-74
2020/12/27 09:30:39;;;;;;;4.35;3.53;;;1.80;1.00;;;;;;4994263;28;20703;-74
2020/12/27 09:33:06;;;;;;;4.78;3.35;;;1.90;1.00;;;;;;4985115;28;20228;-73
2020/12/27 09:35:33;;;;;;;3.97;3.00;;;1.90;1.00;;;;;;5003994;28;20279;-73
2020/12/27 09:37:59;;;;;;;4.30;3.83;;;1.90;1.00;;;;;;5001918;28;21159;-74
2020/12/27 09:40:27;;;;;;;5.90;4.18;;;1.90;1.00;;;;;;4996936;28;20268;-74
2020/12/27 09:43:01;;;;;;;3.28;2.97;;;1.90;1.00;;;;;;4986339;28;20433;-75
2020/12/27 09:45:27;;;;;;;4.00;3.50;;;1.90;1.00;;;;;;4985640;28;20342;-74
2020/12/27 09:47:56;;;;;;;3.92;3.47;;;1.90;1.00;;;;;;4986307;28;20293;-75
2020/12/27 09:50:27;;;;;;;4.90;3.92;;;1.90;1.00;;;;;;4986566;28;20382;-74
2020/12/27 09:52:55;;;;;;;4.47;3.53;;;2.00;1.00;;;;;;4987056;28;20233;-74
2020/12/27 09:55:22;;;;;;;5.00;3.83;;;2.00;1.00;;;;;;4982422;28;20370;-74
2020/12/27 09:57:48;;;;;;;4.78;3.80;;;2.00;1.00;;;;;;4988886;28;20224;-75
2020/12/27 10:00:14;;;;;;;3.78;3.40;;;2.10;1.00;;;;;;4996811;28;20235;-75
2020/12/27 10:02:40;;;;;;;4.30;3.85;;;2.10;1.00;;;;;;5015643;28;20239;-74
2020/12/27 10:05:07;;;;;;;5.18;3.97;;;2.10;1.00;;;;;;5015390;28;20235;-74
2020/12/27 10:07:33;;;;;;;5.10;4.57;;;2.10;1.00;;;;;;5008693;28;20251;-74
2020/12/27 10:10:01;;;;;;;6.50;5.88;;;2.10;1.00;;;;;;4998720;28;20216;-74
2020/12/27 10:12:27;;;;;;;7.25;3.70;;;2.20;1.00;;;;;;5003941;28;20227;-74
2020/12/27 10:14:54;;;;;;;5.65;4.88;;;2.20;1.00;;;;;;4994729;28;20223;-73
2020/12/27 10:17:20;;;;;;;5.88;4.65;;;2.20;1.00;;;;;;4986298;28;20310;-74
2020/12/27 10:19:46;;;;;;;5.15;4.68;;;2.20;1.00;;;;;;4984436;28;20236;-75
2020/12/27 10:22:13;;;;;;;5.15;4.05;;;2.20;1.00;;;;;;4983480;28;20224;-74
2020/12/27 10:24:40;;;;;;;4.85;4.13;;;2.20;1.00;;;;;;4993769;28;20224;-74
2020/12/27 10:27:07;;;;;;;3.95;3.65;;;2.20;1.00;;;;;;4981719;28;20733;-74
2020/12/27 10:29:34;;;;;;;5.43;4.85;;;2.20;1.00;;;;;;4987242;28;20307;-75
2020/12/27 10:32:01;;;;;;;4.60;3.75;;;2.10;1.00;;;;;;4985937;28;21116;-74
2020/12/27 10:34:28;;;;;;;6.45;4.10;;;2.10;1.00;;;;;;4985462;28;20235;-74
2020/12/27 10:36:56;;;;;;;5.97;4.03;;;2.20;1.00;;;;;;4987353;28;20240;-74
2020/12/27 10:39:23;;;;;;;4.63;3.63;;;2.10;1.00;;;;;;4981872;28;20702;-73
2020/12/27 10:41:51;;;;;;;4.28;3.80;;;2.10;1.00;;;;;;4980646;28;20279;-73
2020/12/27 10:44:19;;;;;;;4.75;3.53;;;2.10;1.00;;;;;;4982611;28;20314;-75
2020/12/27 10:46:46;;;;;;;4.75;3.60;;;2.10;1.00;;;;;;4985683;28;21161;-73
2020/12/27 10:49:12;;;;;;;3.63;3.10;;;2.20;1.00;;;;;;4984451;28;20212;-76
2020/12/27 10:51:40;;;;;;;4.20;3.55;;;2.20;1.00;;;;;;5003211;28;20238;-75
2020/12/27 10:54:08;;;;;;;6.32;3.92;;;2.20;1.00;;;;;;4987893;28;20306;-75
2020/12/27 10:56:34;;;;;;;6.05;4.03;;;2.20;1.00;;;;;;4989250;28;20279;-74
2020/12/27 10:59:00;;;;;;;3.67;3.33;;;2.20;1.00;;;;;;4987165;28;20240;-75
2020/12/27 11:01:28;;;;;;;4.00;3.55;;;2.20;1.00;;;;;;4983507;28;20330;-73
2020/12/27 11:03:54;;;;;;;4.80;3.88;;;2.20;1.00;;;;;;4988235;28;20235;-75
2020/12/27 11:06:28;;;;;;;5.68;3.85;;;2.20;1.00;;;;;;4988723;28;20247;-74
2020/12/27 11:08:54;;;;;;;4.95;4.03;;;2.20;1.00;;;;;;4983621;28;20313;-74
2020/12/27 11:11:21;;;;;;;5.32;4.00;;;2.20;1.00;;;;;;4986191;28;21028;-75
2020/12/27 11:13:48;;;;;;;3.10;2.80;;;2.30;1.00;;;;;;4987631;28;20314;-74
2020/12/27 11:16:14;;;;;;;4.10;3.15;;;2.30;1.00;;;;;;4985448;28;20219;-73
2020/12/27 11:18:42;;;;;;;8.90;3.88;;;2.30;1.00;;;;;;4990079;28;20242;-73
2020/12/27 11:21:08;;;;;;;3.75;3.45;;;2.40;1.00;;;;;;4989192;28;20295;-75
2020/12/27 11:23:34;;;;;;;4.60;3.22;;;2.40;1.00;;;;;;4989159;28;20224;-73
2020/12/27 11:26:00;;;;;;;4.45;3.22;;;2.50;1.00;;;;;;4983749;28;20219;-73
2020/12/27 11:28:26;;;;;;;6.22;3.90;;;2.40;1.00;;;;;;4993953;28;20235;-75
2020/12/27 11:30:53;;;;;;;5.30;3.55;;;2.40;1.00;;;;;;4994281;28;20262;-75
2020/12/27 11:33:19;;;;;;;3.55;3.25;;;2.40;1.00;;;;;;5007943;28;20275;-74
2020/12/27 11:35:46;;;;;;;3.95;3.20;;;2.30;1.00;;;;;;5009317;28;20327;-74
2020/12/27 11:38:13;;;;;;;3.70;3.13;;;2.40;1.00;;;;;;5008512;28;20267;-75
2020/12/27 11:40:39;;;;;;;3.78;3.47;;;2.40;1.00;;;;;;4988627;28;20239;-74
2020/12/27 11:43:05;;;;;;;3.53;3.20;;;2.40;1.00;;;;;;4989459;28;20236;-72
2020/12/27 11:45:31;;;;;;;5.75;2.90;;;2.40;1.00;;;;;;4987842;28;20318;-73
2020/12/27 11:47:57;;;;;;;4.25;3.60;;;2.40;1.00;;;;;;4989349;28;20304;-73
2020/12/27 11:50:24;;;;;;;3.30;3.00;;;2.40;1.00;;;;;;4988754;28;20234;-74
2020/12/27 11:52:51;;;;;;;5.30;2.78;;;2.50;1.00;;;;;;5001229;28;20231;-75
2020/12/27 11:55:17;;;;;;;3.70;3.20;;;2.50;1.00;;;;;;5002368;28;20302;-73
2020/12/27 11:57:43;;;;;;;3.08;2.70;;;2.50;1.00;;;;;;4993463;28;20722;-74
2020/12/27 12:00:09;;;;;;;5.68;2.70;;;2.50;1.00;;;;;;4988065;28;20310;-74
2020/12/27 12:02:35;;;;;;;3.55;2.30;;;2.60;1.00;;;;;;4995181;28;20227;-74
2020/12/27 12:05:02;;;;;;;3.30;2.25;;;2.60;1.00;;;;;;4986521;28;20353;-73
2020/12/27 12:07:28;;;;;;;3.00;2.70;;;2.60;1.00;;;;;;4995181;28;20239;-72
2020/12/27 12:09:55;;;;;;;3.08;2.60;;;2.60;1.00;;;;;;4994492;28;20298;-75
2020/12/27 12:12:21;;;;;;;2.65;2.35;;;2.70;1.00;;;;;;4988898;28;20262;-74
2020/12/27 12:14:47;;;;;;;2.10;1.83;;;2.70;1.00;;;;;;4985474;28;20745;-72
2020/12/27 12:17:13;;;;;;;4.40;2.30;;;2.80;1.00;;;;;;4990518;28;20318;-73
2020/12/27 12:19:40;;;;;;;3.53;2.20;;;2.80;1.00;;;;;;4992370;28;20370;-73
2020/12/27 12:22:06;;;;;;;3.05;2.75;;;2.80;1.00;;;;;;4994471;28;20266;-73
2020/12/27 12:24:32;;;;;;;2.95;2.40;;;2.80;1.00;;;;;;4985908;28;20310;-73
2020/12/27 12:26:59;;;;;;;4.43;2.13;;;2.90;1.00;;;;;;4989111;28;20219;-73
2020/12/27 12:29:25;;;;;;;7.20;2.78;;;2.90;1.00;;;;;;4988385;28;20247;-73
2020/12/27 12:31:51;;;;;;;3.90;2.15;;;2.80;1.00;;;;;;4984338;28;20229;-73
2020/12/27 12:34:18;;;;;;;2.85;2.47;;;2.70;1.00;;;;;;4988136;28;20235;-74
2020/12/27 12:36:48;;;;;;;2.88;2.58;;;2.70;1.00;;;;;;4991365;28;20251;-74
2020/12/27 12:39:14;;;;;;;4.55;2.75;;;2.80;1.00;;;;;;4989081;28;20233;-74
2020/12/27 12:41:40;;;;;;;3.13;2.50;;;2.70;1.00;;;;;;4990712;28;20262;-72
2020/12/27 12:44:07;;;;;;;2.25;2.05;;;2.80;1.00;;;;;;4989499;28;20236;-73
2020/12/27 12:46:33;;;;;;;3.88;3.05;;;2.70;1.00;;;;;;4988225;28;20946;-73
2020/12/27 12:48:59;;;;;;;3.35;2.83;;;2.70;1.00;;;;;;4989721;28;20397;-72
2020/12/27 12:51:26;;;;;;;2.80;2.60;;;2.70;1.00;;;;;;4996471;28;20238;-73
2020/12/27 12:53:52;;;;;;;2.88;2.10;;;2.70;1.00;;;;;;4991140;28;20219;-73
2020/12/27 12:56:18;;;;;;;3.10;2.20;;;2.70;1.00;;;;;;4986479;28;20226;-73
2020/12/27 12:58:44;;;;;;;3.03;2.25;;;2.80;1.00;;;;;;5010153;28;20231;-74
2020/12/27 13:01:12;;;;;;;2.90;2.70;;;2.80;1.00;;;;;;4991911;28;20313;-74
2020/12/27 13:03:41;;;;;;;2.70;2.10;;;2.80;1.00;;;;;;4992491;28;20234;-73
2020/12/27 13:06:09;;;;;;;2.30;2.10;;;2.70;1.00;;;;;;4994502;28;20234;-73
2020/12/27 13:08:36;;;;;;;6.72;2.58;;;2.70;1.00;;;;;;4998054;28;20245;-73
2020/12/27 13:11:02;;;;;;;2.72;2.30;;;2.70;1.00;;;;;;5005985;28;20375;-73